sensor_id;sensor_type;location;lat;lon;timestamp;temperature;humidity
39997;DHT22;25688;52.338;21.072;2022-08-19T00:01:17;17.40;99.90
39997;DHT22;25688;52.338;21.072;2022-08-19T00:04:41;17.40;99.90
39997;DHT22;25688;52.338;21.072;2022-08-19T00:41:03;17.00;99.90
39997;DHT22;25688;52.338;21.072;2022-08-19T01:01:16;17.20;99.90
39997;DHT22;25688;52.338;21.072;2022-08-19T01:17:57;16.90;99.90
39997;DHT22;25688;52.338;21.072;2022-08-19T01:24:28;16.80;99.90
39997;DHT22;25688;52.338;21.072;2022-08-19T01:44:51;16.50;99.90
39997;DHT22;25688;52.338;21.072;2022-08-19T01:54:11;16.20;99.90
39997;DHT22;25688;52.338;21.072;2022-08-19T01:56:44;16.20;99.90
39997;DHT22;25688;52.338;21.072;2022-08-19T03:11:31;15.90;99.90
39997;DHT22;25688;52.338;21.072;2022-08-19T03:28:16;15.70;99.90
39997;DHT22;25688;52.338;21.072;2022-08-19T03:31:22;15.70;99.90
39997;DHT22;25688;52.338;21.072;2022-08-19T04:19:34;17.60;99.90
39997;DHT22;25688;52.338;21.072;2022-08-19T05:00:02;19.60;99.90
39997;DHT22;25688;52.338;21.072;2022-08-19T05:03:20;20.00;99.90
39997;DHT22;25688;52.338;21.072;2022-08-19T05:23:06;21.80;99.90
39997;DHT22;25688;52.338;21.072;2022-08-19T05:29:24;22.10;99.90
39997;DHT22;25688;52.338;21.072;2022-08-19T05:40:01;22.20;99.90
39997;DHT22;25688;52.338;21.072;2022-08-19T05:46:59;22.40;99.90
39997;DHT22;25688;52.338;21.072;2022-08-19T05:50:23;22.50;99.90
39997;DHT22;25688;52.338;21.072;2022-08-19T08:34:41;27.10;99.90
39997;DHT22;25688;52.338;21.072;2022-08-19T09:19:04;28.20;99.90
39997;DHT22;25688;52.338;21.072;2022-08-19T09:35:37;28.30;99.90
39997;DHT22;25688;52.338;21.072;2022-08-19T10:02:27;29.00;99.90
39997;DHT22;25688;52.338;21.072;2022-08-19T10:14:11;29.30;99.90
39997;DHT22;25688;52.338;21.072;2022-08-19T10:20:37;29.40;99.90
39997;DHT22;25688;52.338;21.072;2022-08-19T10:23:57;29.50;99.90
39997;DHT22;25688;52.338;21.072;2022-08-19T12:56:07;31.50;92.90
39997;DHT22;25688;52.338;21.072;2022-08-19T12:58:32;31.50;92.80
39997;DHT22;25688;52.338;21.072;2022-08-19T13:01:06;31.50;92.30
39997;DHT22;25688;52.338;21.072;2022-08-19T13:03:32;31.40;92.20
39997;DHT22;25688;52.338;21.072;2022-08-19T13:05:58;31.50;93.60
39997;DHT22;25688;52.338;21.072;2022-08-19T13:08:24;31.50;92.20
39997;DHT22;25688;52.338;21.072;2022-08-19T13:10:49;31.40;91.30
39997;DHT22;25688;52.338;21.072;2022-08-19T13:13:16;31.40;91.20
39997;DHT22;25688;52.338;21.072;2022-08-19T13:15:42;31.40;91.60
39997;DHT22;25688;52.338;21.072;2022-08-19T13:18:10;31.30;88.70
39997;DHT22;25688;52.338;21.072;2022-08-19T13:20:37;31.40;88.60
39997;DHT22;25688;52.338;21.072;2022-08-19T13:23:06;31.30;85.20
39997;DHT22;25688;52.338;21.072;2022-08-19T13:25:32;31.30;86.50
39997;DHT22;25688;52.338;21.072;2022-08-19T13:27:59;31.30;85.00
39997;DHT22;25688;52.338;21.072;2022-08-19T13:30:24;31.30;87.20
39997;DHT22;25688;52.338;21.072;2022-08-19T13:33:09;31.30;85.70
39997;DHT22;25688;52.338;21.072;2022-08-19T13:35:45;31.30;85.50
39997;DHT22;25688;52.338;21.072;2022-08-19T13:38:12;31.30;85.10
39997;DHT22;25688;52.338;21.072;2022-08-19T13:40:39;31.20;85.00
39997;DHT22;25688;52.338;21.072;2022-08-19T13:43:06;31.20;87.30
39997;DHT22;25688;52.338;21.072;2022-08-19T13:45:33;31.30;87.60
39997;DHT22;25688;52.338;21.072;2022-08-19T13:48:00;31.40;86.40
39997;DHT22;25688;52.338;21.072;2022-08-19T13:50:29;31.40;85.00
39997;DHT22;25688;52.338;21.072;2022-08-19T13:52:57;31.40;84.80
39997;DHT22;25688;52.338;21.072;2022-08-19T13:55:24;31.30;84.50
39997;DHT22;25688;52.338;21.072;2022-08-19T13:57:54;31.30;81.90
39997;DHT22;25688;52.338;21.072;2022-08-19T14:00:22;31.30;81.30
39997;DHT22;25688;52.338;21.072;2022-08-19T14:02:52;31.20;83.40
39997;DHT22;25688;52.338;21.072;2022-08-19T14:05:19;31.20;83.90
39997;DHT22;25688;52.338;21.072;2022-08-19T14:07:45;31.10;83.70
39997;DHT22;25688;52.338;21.072;2022-08-19T14:10:12;31.10;83.40
39997;DHT22;25688;52.338;21.072;2022-08-19T14:12:39;31.10;82.00
39997;DHT22;25688;52.338;21.072;2022-08-19T14:15:07;31.10;82.00
39997;DHT22;25688;52.338;21.072;2022-08-19T14:17:33;31.00;84.40
39997;DHT22;25688;52.338;21.072;2022-08-19T14:22:37;31.10;82.10
39997;DHT22;25688;52.338;21.072;2022-08-19T14:27:33;31.00;85.30
39997;DHT22;25688;52.338;21.072;2022-08-19T14:29:59;31.00;82.90
39997;DHT22;25688;52.338;21.072;2022-08-19T14:32:25;30.90;83.20
39997;DHT22;25688;52.338;21.072;2022-08-19T14:34:53;30.90;81.40
39997;DHT22;25688;52.338;21.072;2022-08-19T14:37:20;30.80;83.00
39997;DHT22;25688;52.338;21.072;2022-08-19T14:44:46;30.60;83.70
39997;DHT22;25688;52.338;21.072;2022-08-19T14:54:31;30.70;84.30
39997;DHT22;25688;52.338;21.072;2022-08-19T14:59:23;30.60;89.60
39997;DHT22;25688;52.338;21.072;2022-08-19T15:01:49;30.60;85.70
39997;DHT22;25688;52.338;21.072;2022-08-19T15:04:14;30.50;84.60
39997;DHT22;25688;52.338;21.072;2022-08-19T15:06:40;30.50;84.30
39997;DHT22;25688;52.338;21.072;2022-08-19T15:11:34;30.40;83.80
39997;DHT22;25688;52.338;21.072;2022-08-19T15:14:00;30.40;84.30
39997;DHT22;25688;52.338;21.072;2022-08-19T15:16:27;30.30;84.30
39997;DHT22;25688;52.338;21.072;2022-08-19T15:18:55;30.40;84.90
39997;DHT22;25688;52.338;21.072;2022-08-19T15:21:23;30.30;84.80
39997;DHT22;25688;52.338;21.072;2022-08-19T15:23:50;30.30;84.50
39997;DHT22;25688;52.338;21.072;2022-08-19T15:26:18;30.30;84.30
39997;DHT22;25688;52.338;21.072;2022-08-19T15:28:44;30.30;84.30
39997;DHT22;25688;52.338;21.072;2022-08-19T15:31:12;30.20;85.10
39997;DHT22;25688;52.338;21.072;2022-08-19T15:33:39;30.30;83.50
39997;DHT22;25688;52.338;21.072;2022-08-19T15:41:43;30.30;85.20
39997;DHT22;25688;52.338;21.072;2022-08-19T16:14:57;29.60;86.60
39997;DHT22;25688;52.338;21.072;2022-08-19T17:33:25;26.80;99.90
39997;DHT22;25688;52.338;21.072;2022-08-19T18:06:47;26.00;99.90
39997;DHT22;25688;52.338;21.072;2022-08-19T18:15:28;25.60;99.90
39997;DHT22;25688;52.338;21.072;2022-08-19T18:20:59;25.50;99.90
39997;DHT22;25688;52.338;21.072;2022-08-19T18:25:54;25.40;99.90
39997;DHT22;25688;52.338;21.072;2022-08-19T18:30:58;25.30;99.90
39997;DHT22;25688;52.338;21.072;2022-08-19T18:33:25;25.40;99.90
39997;DHT22;25688;52.338;21.072;2022-08-19T18:36:39;25.20;99.90
39997;DHT22;25688;52.338;21.072;2022-08-19T18:42:17;25.00;99.90
39997;DHT22;25688;52.338;21.072;2022-08-19T18:48:23;26.70;99.90
39997;DHT22;25688;52.338;21.072;2022-08-19T18:51:31;25.20;99.90
39997;DHT22;25688;52.338;21.072;2022-08-19T18:57:58;24.70;99.90
39997;DHT22;25688;52.338;21.072;2022-08-19T19:33:52;24.10;99.90
39997;DHT22;25688;52.338;21.072;2022-08-19T19:37:12;24.10;99.90
39997;DHT22;25688;52.338;21.072;2022-08-19T19:39:48;24.10;99.90
39997;DHT22;25688;52.338;21.072;2022-08-19T19:42:31;23.20;99.90
39997;DHT22;25688;52.338;21.072;2022-08-19T19:44:57;24.00;99.90
39997;DHT22;25688;52.338;21.072;2022-08-19T19:47:24;24.00;99.90
39997;DHT22;25688;52.338;21.072;2022-08-19T19:49:55;23.90;99.90
39997;DHT22;25688;52.338;21.072;2022-08-19T19:52:21;23.80;99.90
39997;DHT22;25688;52.338;21.072;2022-08-19T19:54:47;23.80;99.90
39997;DHT22;25688;52.338;21.072;2022-08-19T19:57:13;23.70;99.90
39997;DHT22;25688;52.338;21.072;2022-08-19T19:59:40;23.70;99.90
39997;DHT22;25688;52.338;21.072;2022-08-19T20:04:58;23.30;99.90
39997;DHT22;25688;52.338;21.072;2022-08-19T20:07:24;23.50;99.90
39997;DHT22;25688;52.338;21.072;2022-08-19T20:10:10;23.50;99.90
39997;DHT22;25688;52.338;21.072;2022-08-19T20:12:35;23.50;99.90
39997;DHT22;25688;52.338;21.072;2022-08-19T20:15:12;23.50;99.90
39997;DHT22;25688;52.338;21.072;2022-08-19T20:17:39;23.40;99.90
39997;DHT22;25688;52.338;21.072;2022-08-19T20:20:11;23.40;99.90
39997;DHT22;25688;52.338;21.072;2022-08-19T20:22:39;23.30;99.90
39997;DHT22;25688;52.338;21.072;2022-08-19T20:25:06;23.20;99.90
39997;DHT22;25688;52.338;21.072;2022-08-19T20:27:39;23.20;99.90
39997;DHT22;25688;52.338;21.072;2022-08-19T20:30:12;23.10;99.90
39997;DHT22;25688;52.338;21.072;2022-08-19T20:32:39;23.00;99.90
39997;DHT22;25688;52.338;21.072;2022-08-19T20:35:11;22.90;99.90
39997;DHT22;25688;52.338;21.072;2022-08-19T20:37:37;22.90;99.90
39997;DHT22;25688;52.338;21.072;2022-08-19T20:40:05;22.80;99.90
39997;DHT22;25688;52.338;21.072;2022-08-19T20:42:34;22.80;99.90
39997;DHT22;25688;52.338;21.072;2022-08-19T20:45:02;22.00;99.90
39997;DHT22;25688;52.338;21.072;2022-08-19T20:47:28;22.80;99.90
39997;DHT22;25688;52.338;21.072;2022-08-19T20:49:55;22.80;99.90
39997;DHT22;25688;52.338;21.072;2022-08-19T20:52:22;22.80;99.90
39997;DHT22;25688;52.338;21.072;2022-08-19T20:54:47;22.80;99.90
39997;DHT22;25688;52.338;21.072;2022-08-19T20:57:29;22.80;99.90
39997;DHT22;25688;52.338;21.072;2022-08-19T20:59:55;22.80;99.90
39997;DHT22;25688;52.338;21.072;2022-08-19T21:02:33;22.80;99.90
39997;DHT22;25688;52.338;21.072;2022-08-19T21:05:24;22.80;99.90
39997;DHT22;25688;52.338;21.072;2022-08-19T21:08:22;22.80;99.90
39997;DHT22;25688;52.338;21.072;2022-08-19T21:11:02;22.80;99.90
39997;DHT22;25688;52.338;21.072;2022-08-19T21:13:43;22.90;99.90
39997;DHT22;25688;52.338;21.072;2022-08-19T21:16:30;22.90;99.90
39997;DHT22;25688;52.338;21.072;2022-08-19T21:22:20;22.80;99.90
39997;DHT22;25688;52.338;21.072;2022-08-19T21:24:58;22.90;99.90
39997;DHT22;25688;52.338;21.072;2022-08-19T21:27:29;22.80;99.90
39997;DHT22;25688;52.338;21.072;2022-08-19T21:30:01;22.80;99.90
39997;DHT22;25688;52.338;21.072;2022-08-19T21:32:38;22.80;99.90
39997;DHT22;25688;52.338;21.072;2022-08-19T21:35:18;22.80;99.90
39997;DHT22;25688;52.338;21.072;2022-08-19T21:38:10;22.90;99.90
39997;DHT22;25688;52.338;21.072;2022-08-19T21:40:36;22.80;99.90
39997;DHT22;25688;52.338;21.072;2022-08-19T21:43:02;22.80;99.90
39997;DHT22;25688;52.338;21.072;2022-08-19T21:45:30;22.90;99.90
39997;DHT22;25688;52.338;21.072;2022-08-19T21:47:56;22.90;99.90
39997;DHT22;25688;52.338;21.072;2022-08-19T21:54:45;22.80;99.90
39997;DHT22;25688;52.338;21.072;2022-08-19T22:07:40;22.60;99.90
39997;DHT22;25688;52.338;21.072;2022-08-19T22:10:08;22.60;99.90
39997;DHT22;25688;52.338;21.072;2022-08-19T22:12:42;22.70;99.90
39997;DHT22;25688;52.338;21.072;2022-08-19T22:15:13;22.70;99.90
39997;DHT22;25688;52.338;21.072;2022-08-19T22:17:44;22.70;99.90
39997;DHT22;25688;52.338;21.072;2022-08-19T22:20:23;22.70;99.90
39997;DHT22;25688;52.338;21.072;2022-08-19T22:22:54;22.60;99.90
39997;DHT22;25688;52.338;21.072;2022-08-19T22:28:52;22.50;99.90
39997;DHT22;25688;52.338;21.072;2022-08-19T22:31:46;22.70;99.90
39997;DHT22;25688;52.338;21.072;2022-08-19T22:37:39;22.60;99.90
39997;DHT22;25688;52.338;21.072;2022-08-19T22:40:07;22.60;99.90
39997;DHT22;25688;52.338;21.072;2022-08-19T22:42:33;22.60;99.90
39997;DHT22;25688;52.338;21.072;2022-08-19T22:45:15;22.50;99.90
39997;DHT22;25688;52.338;21.072;2022-08-19T22:47:41;22.50;99.90
39997;DHT22;25688;52.338;21.072;2022-08-19T22:50:12;22.30;99.90
39997;DHT22;25688;52.338;21.072;2022-08-19T22:52:38;22.50;99.90
39997;DHT22;25688;52.338;21.072;2022-08-19T22:55:10;22.50;99.90
39997;DHT22;25688;52.338;21.072;2022-08-19T22:57:39;22.40;99.90
39997;DHT22;25688;52.338;21.072;2022-08-19T23:00:23;22.40;99.90
39997;DHT22;25688;52.338;21.072;2022-08-19T23:02:53;22.60;99.90
39997;DHT22;25688;52.338;21.072;2022-08-19T23:05:24;22.40;99.90
39997;DHT22;25688;52.338;21.072;2022-08-19T23:11:31;22.40;99.90
39997;DHT22;25688;52.338;21.072;2022-08-19T23:14:26;22.40;99.90
39997;DHT22;25688;52.338;21.072;2022-08-19T23:17:03;22.30;99.90
39997;DHT22;25688;52.338;21.072;2022-08-19T23:19:32;22.30;99.90
39997;DHT22;25688;52.338;21.072;2022-08-19T23:21:59;22.30;99.90
39997;DHT22;25688;52.338;21.072;2022-08-19T23:24:25;22.30;99.90
39997;DHT22;25688;52.338;21.072;2022-08-19T23:26:58;22.30;99.90
39997;DHT22;25688;52.338;21.072;2022-08-19T23:29:47;22.10;99.90
39997;DHT22;25688;52.338;21.072;2022-08-19T23:33:12;22.30;99.90
39997;DHT22;25688;52.338;21.072;2022-08-19T23:46:41;22.10;99.90
39997;DHT22;25688;52.338;21.072;2022-08-19T23:49:07;22.00;99.90
39997;DHT22;25688;52.338;21.072;2022-08-19T23:51:33;21.90;99.90
39997;DHT22;25688;52.338;21.072;2022-08-19T23:53:58;21.80;99.90
39997;DHT22;25688;52.338;21.072;2022-08-19T23:56:24;21.80;99.90
39997;DHT22;25688;52.338;21.072;2022-08-19T23:58:50;21.60;99.90
